createdAt,value
2019-05-30T00:00:12.543Z,60.67
2019-05-30T00:01:00.681Z,60.74
2019-05-30T00:02:00.471Z,61.05
2019-05-30T00:03:00.271Z,59.75
2019-05-30T00:04:00.362Z,60.57
2019-05-30T00:05:00.316Z,60.46
2019-05-30T00:06:00.547Z,60.36
2019-05-30T00:07:00.540Z,60.03
2019-05-30T00:08:00.338Z,60.97
2019-05-30T00:09:00.512Z,60.74
2019-05-30T00:10:00.575Z,60.85
2019-05-30T00:11:00.612Z,60.36
2019-05-30T00:12:00.813Z,60.87
2019-05-30T00:13:00.642Z,61.49
2019-05-30T00:14:00.683Z,61.79
2019-05-30T00:15:00.569Z,62.10
2019-05-30T00:16:00.713Z,62.40
2019-05-30T00:17:00.830Z,62.51
2019-05-30T00:18:00.772Z,62.61
2019-05-30T00:19:00.787Z,62.40
2019-05-30T00:20:00.684Z,61.99
2019-05-30T00:21:00.605Z,62.10
2019-05-30T00:22:00.742Z,61.38
2019-05-30T00:22:59.432Z,61.61
2019-05-30T00:23:59.971Z,61.51
2019-05-30T00:25:00.060Z,61.41
2019-05-30T00:25:59.385Z,61.61
2019-05-30T00:27:00.276Z,61.51
2019-05-30T00:27:59.400Z,61.82
2019-05-30T00:29:00.290Z,62.13
2019-05-30T00:29:59.346Z,61.82
2019-05-30T00:31:00.384Z,62.13
2019-05-30T00:31:59.431Z,61.61
2019-05-30T00:33:00.594Z,61.31
2019-05-30T00:33:59.571Z,60.80
2019-05-30T00:34:59.668Z,60.80
2019-05-30T00:35:59.862Z,61.72
2019-05-30T00:36:59.854Z,61.82
2019-05-30T00:37:59.710Z,62.02
2019-05-30T00:38:59.761Z,61.82
2019-05-30T00:39:59.860Z,61.92
2019-05-30T00:40:59.974Z,62.13
2019-05-30T00:41:59.984Z,62.02
2019-05-30T00:43:00.023Z,61.61
2019-05-30T00:43:59.943Z,62.23
2019-05-30T00:44:59.956Z,61.82
2019-05-30T00:46:00.017Z,61.41
2019-05-30T00:47:00.499Z,61.61
2019-05-30T00:48:00.127Z,61.51
2019-05-30T00:49:00.180Z,61.31
2019-05-30T00:50:00.196Z,60.60
2019-05-30T00:51:00.210Z,60.83
2019-05-30T00:52:00.440Z,60.42
2019-05-30T00:52:59.092Z,60.42
2019-05-30T00:53:59.098Z,60.80
2019-05-30T00:54:59.066Z,60.42
2019-05-30T00:56:01.537Z,60.80
2019-05-30T00:56:59.043Z,60.83
2019-05-30T00:57:59.059Z,60.72
2019-05-30T00:58:59.029Z,60.90
2019-05-30T00:59:59.034Z,60.52
2019-05-30T01:01:01.030Z,60.60
2019-05-30T01:01:58.983Z,60.60
2019-05-30T01:02:59.863Z,61.44
2019-05-30T01:03:58.969Z,61.24
2019-05-30T01:04:58.963Z,60.69
2019-05-30T01:05:58.947Z,60.69
2019-05-30T01:06:59.110Z,61.54
2019-05-30T01:07:58.933Z,60.80
2019-05-30T01:08:59.100Z,60.83
2019-05-30T01:09:59.145Z,61.31
2019-05-30T01:10:59.013Z,61.41
2019-05-30T01:11:59.105Z,61.51
2019-05-30T01:12:59.916Z,61.41
2019-05-30T01:13:59.023Z,61.44
2019-05-30T01:14:58.936Z,61.31
2019-05-30T01:15:58.996Z,60.69
2019-05-30T01:16:59.043Z,60.69
2019-05-30T01:17:59.119Z,60.93
2019-05-30T01:18:59.098Z,60.62
2019-05-30T01:19:59.103Z,61.34
2019-05-30T01:20:59.142Z,61.85
2019-05-30T01:21:59.127Z,61.75
2019-05-30T01:22:59.177Z,61.67
2019-05-30T01:23:59.199Z,61.77
2019-05-30T01:24:59.073Z,61.54
2019-05-30T01:25:59.351Z,60.85
2019-05-30T01:26:59.219Z,60.44
2019-05-30T01:27:59.471Z,60.85
2019-05-30T01:28:59.317Z,60.96
2019-05-30T01:29:59.412Z,60.96
2019-05-30T01:31:02.988Z,61.47
2019-05-30T01:31:59.658Z,61.36
2019-05-30T01:32:59.650Z,61.50
2019-05-30T01:33:59.495Z,61.80
2019-05-30T01:34:59.753Z,62.32
2019-05-30T01:35:59.648Z,62.11
2019-05-30T01:36:59.846Z,62.39
2019-05-30T01:37:59.684Z,61.88
2019-05-30T01:38:59.613Z,61.98
2019-05-30T01:39:59.699Z,62.08
2019-05-30T01:40:59.616Z,62.29
2019-05-30T01:41:59.669Z,61.88
2019-05-30T01:42:59.823Z,61.98
2019-05-30T01:43:59.750Z,61.26
2019-05-30T01:44:58.502Z,61.67
2019-05-30T01:45:58.502Z,61.47
2019-05-30T01:46:58.486Z,61.67
2019-05-30T01:47:58.498Z,61.67
2019-05-30T01:48:58.462Z,61.36
2019-05-30T01:49:58.449Z,61.47
2019-05-30T01:51:00.314Z,61.98
2019-05-30T01:51:58.573Z,61.88
2019-05-30T01:52:58.540Z,62.29
2019-05-30T01:53:58.408Z,61.98
2019-05-30T01:54:58.580Z,62.18
2019-05-30T01:55:58.576Z,62.18
2019-05-30T01:56:58.497Z,63.00
2019-05-30T01:57:58.718Z,62.70
2019-05-30T01:58:58.688Z,62.59
2019-05-30T01:59:58.663Z,62.59
2019-05-30T02:00:58.796Z,62.70
2019-05-30T02:01:58.907Z,62.70
2019-05-30T02:02:58.844Z,62.70
2019-05-30T02:03:59.072Z,62.70
2019-05-30T02:04:58.843Z,62.59
2019-05-30T02:05:58.919Z,62.59
2019-05-30T02:06:59.212Z,63.10
2019-05-30T02:07:58.996Z,63.00
2019-05-30T02:08:59.130Z,63.41
2019-05-30T02:09:59.144Z,62.80
2019-05-30T02:10:59.195Z,63.13
2019-05-30T02:11:59.301Z,62.42
2019-05-30T02:12:59.294Z,62.42
2019-05-30T02:13:59.461Z,62.62
2019-05-30T02:14:59.324Z,62.55
2019-05-30T02:15:59.490Z,62.52
2019-05-30T02:16:59.505Z,62.62
2019-05-30T02:17:59.426Z,62.52
2019-05-30T02:18:59.467Z,62.83
2019-05-30T02:19:58.114Z,62.93
2019-05-30T02:20:58.107Z,62.73
2019-05-30T02:21:58.095Z,62.52
2019-05-30T02:22:58.143Z,62.52
2019-05-30T02:23:58.075Z,62.65
2019-05-30T02:24:58.087Z,62.76
2019-05-30T02:25:58.053Z,62.76
2019-05-30T02:26:58.041Z,62.35
2019-05-30T02:27:58.054Z,62.73
2019-05-30T02:28:58.030Z,62.62
2019-05-30T02:29:58.003Z,62.83
2019-05-30T02:30:58.002Z,62.73
2019-05-30T02:31:57.988Z,62.83
2019-05-30T02:32:57.980Z,62.83
2019-05-30T02:33:57.985Z,62.83
2019-05-30T02:34:57.965Z,62.62
2019-05-30T02:35:57.950Z,62.73
2019-05-30T02:36:57.934Z,62.62
2019-05-30T02:37:57.928Z,62.76
2019-05-30T02:38:57.924Z,62.45
2019-05-30T02:40:01.009Z,62.55
2019-05-30T02:40:58.898Z,62.55
2019-05-30T02:41:57.884Z,62.45
2019-05-30T02:42:57.860Z,62.65
2019-05-30T02:43:57.876Z,62.65
2019-05-30T02:44:57.861Z,62.55
2019-05-30T02:45:57.851Z,62.68
2019-05-30T02:46:57.828Z,62.48
2019-05-30T02:47:58.362Z,62.55
2019-05-30T02:48:59.614Z,62.48
2019-05-30T02:49:58.391Z,63.09
2019-05-30T02:50:57.807Z,63.20
2019-05-30T02:51:57.814Z,62.37
2019-05-30T02:52:57.783Z,62.35
2019-05-30T02:53:57.892Z,62.85
2019-05-30T02:54:57.724Z,62.55
2019-05-30T02:55:57.726Z,62.85
2019-05-30T02:56:57.714Z,62.55
2019-05-30T02:57:57.686Z,62.65
2019-05-30T02:58:57.718Z,62.85
2019-05-30T02:59:57.679Z,62.65
2019-05-30T03:00:57.684Z,62.65
2019-05-30T03:02:01.829Z,62.65
2019-05-30T03:02:58.641Z,62.76
2019-05-30T03:03:57.651Z,62.45
2019-05-30T03:04:57.641Z,62.55
2019-05-30T03:05:57.616Z,63.17
2019-05-30T03:06:57.610Z,62.65
2019-05-30T03:07:57.600Z,62.65
2019-05-30T03:08:57.585Z,62.76
2019-05-30T03:09:57.560Z,62.45
2019-05-30T03:10:57.550Z,63.17
2019-05-30T03:11:57.542Z,62.58
2019-05-30T03:12:57.551Z,62.58
2019-05-30T03:13:57.538Z,63.09
2019-05-30T03:14:57.518Z,63.17
2019-05-30T03:15:57.498Z,63.09
2019-05-30T03:16:57.492Z,63.40
2019-05-30T03:17:57.480Z,63.20
2019-05-30T03:18:57.490Z,63.17
2019-05-30T03:19:57.470Z,62.96
2019-05-30T03:20:57.449Z,62.45
2019-05-30T03:21:57.432Z,62.85
2019-05-30T03:22:57.417Z,62.55
2019-05-30T03:23:57.436Z,62.85
2019-05-30T03:24:57.417Z,62.55
2019-05-30T03:25:57.390Z,62.45
2019-05-30T03:26:57.381Z,63.37
2019-05-30T03:27:57.372Z,63.17
2019-05-30T03:28:57.371Z,63.17
2019-05-30T03:29:57.352Z,63.06
2019-05-30T03:30:57.348Z,63.26
2019-05-30T03:31:57.329Z,63.37
2019-05-30T03:33:16.969Z,62.65
2019-05-30T03:33:58.345Z,62.45
2019-05-30T03:34:57.294Z,62.45
2019-05-30T03:35:57.302Z,62.85
2019-05-30T03:36:57.261Z,62.76
2019-05-30T03:37:57.274Z,62.14
2019-05-30T03:38:57.276Z,62.14
2019-05-30T03:39:57.259Z,62.04
2019-05-30T03:40:57.222Z,61.50
2019-05-30T03:41:57.216Z,61.60
2019-05-30T03:42:57.223Z,60.78
2019-05-30T03:43:57.209Z,60.58
2019-05-30T03:44:57.186Z,60.75
2019-05-30T03:45:57.172Z,62.01
2019-05-30T03:46:57.157Z,62.32
2019-05-30T03:47:57.152Z,62.32
2019-05-30T03:48:57.151Z,62.32
2019-05-30T03:49:57.136Z,62.32
2019-05-30T03:50:57.119Z,62.55
2019-05-30T03:51:57.116Z,62.65
2019-05-30T03:52:57.096Z,62.65
2019-05-30T03:53:57.092Z,62.76
2019-05-30T03:54:57.066Z,62.85
2019-05-30T03:55:57.054Z,63.06
2019-05-30T03:56:57.081Z,62.45
2019-05-30T03:57:57.034Z,62.93
2019-05-30T03:58:57.047Z,63.26
2019-05-30T03:59:57.008Z,62.96
2019-05-30T04:00:56.997Z,63.06
2019-05-30T04:01:56.994Z,62.55
2019-05-30T04:02:59.018Z,62.65
2019-05-30T04:03:57.006Z,62.14
2019-05-30T04:04:56.956Z,62.14
2019-05-30T04:05:56.950Z,61.70
2019-05-30T04:06:56.988Z,61.40
2019-05-30T04:07:56.938Z,61.09
2019-05-30T04:08:56.921Z,62.83
2019-05-30T04:09:56.919Z,62.52
2019-05-30T04:10:56.902Z,62.59
2019-05-30T04:11:56.892Z,61.40
2019-05-30T04:12:56.877Z,61.16
2019-05-30T04:13:56.873Z,61.16
2019-05-30T04:14:57.430Z,61.06
2019-05-30T04:15:56.838Z,60.35
2019-05-30T04:16:56.889Z,60.96
2019-05-30T04:17:56.855Z,60.14
2019-05-30T04:18:56.801Z,60.24
2019-05-30T04:19:56.850Z,60.24
2019-05-30T04:20:56.779Z,59.83
2019-05-30T04:21:56.770Z,60.35
2019-05-30T04:22:56.779Z,60.55
2019-05-30T04:23:56.748Z,59.80
2019-05-30T04:24:56.754Z,60.11
2019-05-30T04:26:00.353Z,59.91
2019-05-30T04:26:56.702Z,60.11
2019-05-30T04:27:56.706Z,60.11
2019-05-30T04:28:56.689Z,60.11
2019-05-30T04:29:56.698Z,60.11
2019-05-30T04:30:56.664Z,59.70
2019-05-30T04:31:56.664Z,59.78
2019-05-30T04:33:16.050Z,59.60
2019-05-30T04:33:57.627Z,59.27
2019-05-30T04:34:56.766Z,59.57
2019-05-30T04:35:56.615Z,59.88
2019-05-30T04:36:56.603Z,59.88
2019-05-30T04:37:56.595Z,59.78
2019-05-30T04:38:56.585Z,59.16
2019-05-30T04:39:56.595Z,59.16
2019-05-30T04:40:56.562Z,59.44
2019-05-30T04:41:56.562Z,58.93
2019-05-30T04:42:56.541Z,58.83
2019-05-30T04:43:56.521Z,59.14
2019-05-30T04:44:56.522Z,59.14
2019-05-30T04:45:56.503Z,59.34
2019-05-30T04:46:56.487Z,59.03
2019-05-30T04:47:56.481Z,58.62
2019-05-30T04:48:56.494Z,58.60
2019-05-30T04:49:56.500Z,58.80
2019-05-30T04:50:56.443Z,58.70
2019-05-30T04:51:56.433Z,58.83
2019-05-30T04:52:56.437Z,58.70
2019-05-30T04:53:56.420Z,58.39
2019-05-30T04:54:57.314Z,58.29
2019-05-30T04:55:56.405Z,57.98
2019-05-30T04:56:56.388Z,58.39
2019-05-30T04:57:56.381Z,57.98
2019-05-30T04:58:56.364Z,57.98
2019-05-30T04:59:56.383Z,57.86
2019-05-30T05:00:56.349Z,57.65
2019-05-30T05:01:56.380Z,57.04
2019-05-30T05:02:56.315Z,57.24
2019-05-30T05:03:56.285Z,57.62
2019-05-30T05:04:56.306Z,57.65
2019-05-30T05:05:56.292Z,57.24
2019-05-30T05:06:56.266Z,57.34
2019-05-30T05:07:56.250Z,56.91
2019-05-30T05:08:56.261Z,57.01
2019-05-30T05:09:56.281Z,56.73
2019-05-30T05:10:56.218Z,56.91
2019-05-30T05:11:56.210Z,56.81
2019-05-30T05:12:56.206Z,56.81
2019-05-30T05:13:56.233Z,56.91
2019-05-30T05:14:56.211Z,56.91
2019-05-30T05:15:56.841Z,56.91
2019-05-30T05:16:56.162Z,57.12
2019-05-30T05:17:56.147Z,56.71
2019-05-30T05:18:56.152Z,56.88
2019-05-30T05:19:56.126Z,57.01
2019-05-30T05:20:56.142Z,56.71
2019-05-30T05:21:56.100Z,56.68
2019-05-30T05:22:56.089Z,56.88
2019-05-30T05:23:56.070Z,56.17
2019-05-30T05:24:56.063Z,56.68
2019-05-30T05:26:00.898Z,56.48
2019-05-30T05:26:57.046Z,56.78
2019-05-30T05:27:56.037Z,56.58
2019-05-30T05:28:56.028Z,56.78
2019-05-30T05:29:56.014Z,56.48
2019-05-30T05:30:56.001Z,55.66
2019-05-30T05:31:55.992Z,56.04
2019-05-30T05:32:55.979Z,55.87
2019-05-30T05:33:57.338Z,55.87
2019-05-30T05:34:55.954Z,55.74
2019-05-30T05:35:55.968Z,55.63
2019-05-30T05:36:55.934Z,55.43
2019-05-30T05:37:55.964Z,55.43
2019-05-30T05:38:55.911Z,55.43
2019-05-30T05:39:55.886Z,55.43
2019-05-30T05:40:55.908Z,55.63
2019-05-30T05:41:55.876Z,55.22
2019-05-30T05:42:55.872Z,55.22
2019-05-30T05:43:55.848Z,55.43
2019-05-30T05:44:55.844Z,55.22
2019-05-30T05:45:55.860Z,55.53
2019-05-30T05:46:55.812Z,55.33
2019-05-30T05:47:55.806Z,55.61
2019-05-30T05:48:55.796Z,55.41
2019-05-30T05:49:55.869Z,55.41
2019-05-30T05:50:55.818Z,55.10
2019-05-30T05:51:55.766Z,55.61
2019-05-30T05:52:55.749Z,55.51
2019-05-30T05:53:55.742Z,55.91
2019-05-30T05:54:55.737Z,55.30
2019-05-30T05:55:55.745Z,55.10
2019-05-30T05:56:55.714Z,55.41
2019-05-30T05:57:55.702Z,54.87
2019-05-30T05:58:55.688Z,54.69
2019-05-30T05:59:55.675Z,54.87
2019-05-30T06:00:55.689Z,54.77
2019-05-30T06:01:55.652Z,54.57
2019-05-30T06:02:55.643Z,54.77
2019-05-30T06:04:11.672Z,54.66
2019-05-30T06:04:56.630Z,54.46
2019-05-30T06:05:55.700Z,54.36
2019-05-30T06:06:55.606Z,54.57
2019-05-30T06:07:55.585Z,54.05
2019-05-30T06:08:55.578Z,54.46
2019-05-30T06:09:55.571Z,53.85
2019-05-30T06:10:55.584Z,54.36
2019-05-30T06:11:55.547Z,54.05
2019-05-30T06:12:55.528Z,53.93
2019-05-30T06:13:55.523Z,54.05
2019-05-30T06:14:55.514Z,54.33
2019-05-30T06:15:55.520Z,54.24
2019-05-30T06:16:55.965Z,54.24
2019-05-30T06:17:56.358Z,54.03
2019-05-30T06:18:55.503Z,54.33
2019-05-30T06:19:55.451Z,54.24
2019-05-30T06:20:55.463Z,53.59
2019-05-30T06:21:55.437Z,53.70
2019-05-30T06:22:55.417Z,53.72
2019-05-30T06:23:55.414Z,53.80
2019-05-30T06:24:55.402Z,53.90
2019-05-30T06:25:55.551Z,53.83
2019-05-30T06:26:55.505Z,53.59
2019-05-30T06:27:55.536Z,53.59
2019-05-30T06:28:55.384Z,52.89
2019-05-30T06:29:55.376Z,52.98
2019-05-30T06:30:58.729Z,52.48
2019-05-30T06:31:55.372Z,52.78
2019-05-30T06:32:55.317Z,53.09
2019-05-30T06:33:55.298Z,53.29
2019-05-30T06:34:55.277Z,53.17
2019-05-30T06:35:55.273Z,52.89
2019-05-30T06:36:55.306Z,52.86
2019-05-30T06:37:55.243Z,52.45
2019-05-30T06:38:55.261Z,52.56
2019-05-30T06:39:55.254Z,51.84
2019-05-30T06:40:55.227Z,52.56
2019-05-30T06:41:55.225Z,52.35
2019-05-30T06:42:55.189Z,52.25
2019-05-30T06:43:55.180Z,52.56
2019-05-30T06:44:55.177Z,53.06
2019-05-30T06:45:55.181Z,53.06
2019-05-30T06:46:55.244Z,53.27
2019-05-30T06:47:55.132Z,53.27
2019-05-30T06:48:55.133Z,53.37
2019-05-30T06:49:55.124Z,53.06
2019-05-30T06:50:55.104Z,52.53
2019-05-30T06:51:55.124Z,53.04
2019-05-30T06:52:55.093Z,52.33
2019-05-30T06:53:55.101Z,52.43
2019-05-30T06:54:55.078Z,52.43
2019-05-30T06:55:55.054Z,52.23
2019-05-30T06:56:55.054Z,51.72
2019-05-30T06:57:55.036Z,51.31
2019-05-30T06:58:55.024Z,51.62
2019-05-30T06:59:55.009Z,51.11
2019-05-30T07:00:54.995Z,51.31
2019-05-30T07:01:55.847Z,51.31
2019-05-30T07:02:55.042Z,51.11
2019-05-30T07:03:55.084Z,51.18
2019-05-30T07:04:55.576Z,51.59
2019-05-30T07:05:55.468Z,51.90
2019-05-30T07:06:55.203Z,51.90
2019-05-30T07:07:54.960Z,51.79
2019-05-30T07:08:54.911Z,51.49
2019-05-30T07:09:54.908Z,51.49
2019-05-30T07:10:54.884Z,51.70
2019-05-30T07:11:54.890Z,51.29
2019-05-30T07:12:54.878Z,51.70
2019-05-30T07:13:54.852Z,51.37
2019-05-30T07:14:54.952Z,51.06
2019-05-30T07:15:54.841Z,51.16
2019-05-30T07:16:54.856Z,49.95
2019-05-30T07:17:54.854Z,49.97
2019-05-30T07:18:54.840Z,49.33
2019-05-30T07:19:54.821Z,49.03
2019-05-30T07:20:54.794Z,47.91
2019-05-30T07:21:54.789Z,48.32
2019-05-30T07:22:54.783Z,47.91
2019-05-30T07:23:54.741Z,47.81
2019-05-30T07:24:54.736Z,48.10
2019-05-30T07:25:54.725Z,48.50
2019-05-30T07:26:54.722Z,48.32
2019-05-30T07:27:54.698Z,48.40
2019-05-30T07:28:54.691Z,48.40
2019-05-30T07:29:54.688Z,48.10
2019-05-30T07:30:54.654Z,47.59
2019-05-30T07:31:54.704Z,47.79
2019-05-30T07:32:54.661Z,47.89
2019-05-30T07:33:54.640Z,47.99
2019-05-30T07:35:06.121Z,48.40
2019-05-30T07:35:55.610Z,47.49
2019-05-30T07:36:54.617Z,47.69
2019-05-30T07:37:54.598Z,47.67
2019-05-30T07:38:54.578Z,47.26
2019-05-30T07:39:54.588Z,47.16
2019-05-30T07:40:54.548Z,47.26
2019-05-30T07:42:05.600Z,46.95
2019-05-30T07:42:55.535Z,46.75
2019-05-30T07:43:55.431Z,47.36
2019-05-30T07:44:54.512Z,47.16
2019-05-30T07:45:58.172Z,47.06
2019-05-30T07:46:54.517Z,47.56
2019-05-30T07:47:54.473Z,46.14
2019-05-30T07:48:54.464Z,45.42
2019-05-30T07:49:54.457Z,45.62
2019-05-30T07:50:54.441Z,45.62
2019-05-30T07:51:54.464Z,45.42
2019-05-30T07:52:54.428Z,45.31
2019-05-30T07:53:54.407Z,45.62
2019-05-30T07:54:54.408Z,45.82
2019-05-30T07:55:54.394Z,45.82
2019-05-30T07:56:54.427Z,45.11
2019-05-30T07:57:54.441Z,44.10
2019-05-30T07:58:54.357Z,44.30
2019-05-30T07:59:54.348Z,44.10
2019-05-30T08:00:54.330Z,44.10
2019-05-30T08:01:54.369Z,43.99
2019-05-30T08:02:54.314Z,43.98
2019-05-30T08:03:54.303Z,44.10
2019-05-30T08:04:54.286Z,43.99
2019-05-30T08:05:54.277Z,44.07
2019-05-30T08:06:54.285Z,44.27
2019-05-30T08:07:54.257Z,44.27
2019-05-30T08:08:54.246Z,43.98
2019-05-30T08:09:54.229Z,43.77
2019-05-30T08:11:08.259Z,43.47
2019-05-30T08:11:55.228Z,43.06
2019-05-30T08:12:54.190Z,43.16
2019-05-30T08:13:54.179Z,43.77
2019-05-30T08:14:54.173Z,43.16
2019-05-30T08:15:54.182Z,43.16
2019-05-30T08:16:54.174Z,42.86
2019-05-30T08:17:54.146Z,43.77
2019-05-30T08:18:54.134Z,43.67
2019-05-30T08:19:54.117Z,42.96
2019-05-30T08:20:54.108Z,43.04
2019-05-30T08:21:54.119Z,43.14
2019-05-30T08:22:54.091Z,43.35
2019-05-30T08:23:54.076Z,43.65
2019-05-30T08:24:54.062Z,43.14
2019-05-30T08:25:54.059Z,42.54
2019-05-30T08:26:54.048Z,42.74
2019-05-30T08:27:54.082Z,43.14
2019-05-30T08:28:54.015Z,42.23
2019-05-30T08:29:54.006Z,42.41
2019-05-30T08:30:56.808Z,42.13
2019-05-30T08:31:54.003Z,42.11
2019-05-30T08:32:53.975Z,42.61
2019-05-30T08:33:53.964Z,42.72
2019-05-30T08:34:53.951Z,42.52
2019-05-30T08:35:53.943Z,42.92
2019-05-30T08:36:53.945Z,42.11
2019-05-30T08:37:53.925Z,42.92
2019-05-30T08:38:53.906Z,42.61
2019-05-30T08:39:53.896Z,42.72
2019-05-30T08:40:53.892Z,43.12
2019-05-30T08:41:53.898Z,42.41
2019-05-30T08:42:53.854Z,42.80
2019-05-30T08:43:53.865Z,43.23
2019-05-30T08:44:53.842Z,43.30
2019-05-30T08:45:53.840Z,43.32
2019-05-30T08:46:53.842Z,43.12
2019-05-30T08:47:53.808Z,42.82
2019-05-30T08:48:53.802Z,43.10
2019-05-30T08:49:53.808Z,42.69
2019-05-30T08:50:53.786Z,43.00
2019-05-30T08:51:53.800Z,43.10
2019-05-30T08:52:53.763Z,42.69
2019-05-30T08:53:53.745Z,42.29
2019-05-30T08:54:53.724Z,42.09
2019-05-30T08:55:53.715Z,42.69
2019-05-30T08:56:53.739Z,42.69
2019-05-30T08:57:53.703Z,42.49
2019-05-30T08:58:53.688Z,42.47
2019-05-30T08:59:54.384Z,42.07
2019-05-30T09:00:53.666Z,42.98
2019-05-30T09:01:53.681Z,41.06
2019-05-30T09:02:53.649Z,41.16
2019-05-30T09:03:53.631Z,42.37
2019-05-30T09:04:53.627Z,41.36
2019-05-30T09:06:03.541Z,41.56
2019-05-30T09:06:54.620Z,41.46
2019-05-30T09:07:53.587Z,41.06
2019-05-30T09:08:53.571Z,40.75
2019-05-30T09:09:53.558Z,41.75
2019-05-30T09:10:53.555Z,41.16
2019-05-30T09:11:53.568Z,41.26
2019-05-30T09:12:53.564Z,41.35
2019-05-30T09:13:53.528Z,41.24
2019-05-30T09:14:53.502Z,41.35
2019-05-30T09:15:53.505Z,41.35
2019-05-30T09:16:53.489Z,41.35
2019-05-30T09:17:53.500Z,41.64
2019-05-30T09:18:53.459Z,41.44
2019-05-30T09:19:53.461Z,41.95
2019-05-30T09:20:53.443Z,41.75
2019-05-30T09:21:53.447Z,41.64
2019-05-30T09:22:53.434Z,41.35
2019-05-30T09:23:56.892Z,41.35
2019-05-30T09:24:54.402Z,41.55
2019-05-30T09:25:53.390Z,41.55
2019-05-30T09:26:53.381Z,42.55
2019-05-30T09:27:53.414Z,42.43
2019-05-30T09:28:53.348Z,42.64
2019-05-30T09:29:53.335Z,41.93
2019-05-30T09:30:53.326Z,41.02
2019-05-30T09:31:53.330Z,41.63
2019-05-30T09:32:53.363Z,41.32
2019-05-30T09:33:53.297Z,41.63
2019-05-30T09:34:53.349Z,41.73
2019-05-30T09:35:53.275Z,41.32
2019-05-30T09:36:53.271Z,41.52
2019-05-30T09:37:53.266Z,41.30
2019-05-30T09:38:53.259Z,41.50
2019-05-30T09:39:53.230Z,41.20
2019-05-30T09:40:53.214Z,41.61
2019-05-30T09:41:53.207Z,41.61
2019-05-30T09:42:53.215Z,41.00
2019-05-30T09:43:53.191Z,41.61
2019-05-30T09:44:53.280Z,41.50
2019-05-30T09:45:53.186Z,41.71
2019-05-30T09:46:53.151Z,42.21
2019-05-30T09:47:53.157Z,42.52
2019-05-30T09:48:53.126Z,41.81
2019-05-30T09:49:53.127Z,41.10
2019-05-30T09:50:53.110Z,41.50
2019-05-30T09:51:53.092Z,41.79
2019-05-30T09:52:53.103Z,41.50
2019-05-30T09:53:53.091Z,41.30
2019-05-30T09:54:53.078Z,41.10
2019-05-30T09:55:53.141Z,41.71
2019-05-30T09:56:54.120Z,41.61
2019-05-30T09:57:53.498Z,41.10
2019-05-30T09:58:53.022Z,39.99
2019-05-30T09:59:53.006Z,39.77
2019-05-30T10:00:53.000Z,40.37
2019-05-30T10:01:52.996Z,40.78
2019-05-30T10:02:52.996Z,40.08
2019-05-30T10:03:52.970Z,40.37
2019-05-30T10:04:52.954Z,40.17
2019-05-30T10:05:52.949Z,40.88
2019-05-30T10:06:52.929Z,41.28
2019-05-30T10:07:53.082Z,40.68
2019-05-30T10:08:53.110Z,41.16
2019-05-30T10:09:53.135Z,41.28
2019-05-30T10:10:53.480Z,40.16
2019-05-30T10:11:53.498Z,41.27
2019-05-30T10:12:52.895Z,39.65
2019-05-30T10:13:52.986Z,39.55
2019-05-30T10:14:53.011Z,39.15
2019-05-30T10:15:52.827Z,38.95
2019-05-30T10:16:55.999Z,38.82
2019-05-30T10:17:54.531Z,38.82
2019-05-30T10:18:52.948Z,38.32
2019-05-30T10:19:53.070Z,38.73
2019-05-30T10:20:53.665Z,39.13
2019-05-30T10:21:53.259Z,38.62
2019-05-30T10:22:53.804Z,39.33
2019-05-30T10:23:53.733Z,38.52
2019-05-30T10:24:53.346Z,39.53
2019-05-30T10:25:53.368Z,39.23
2019-05-30T10:26:53.173Z,39.13
2019-05-30T10:27:54.639Z,39.01
2019-05-30T10:28:53.344Z,39.63
2019-05-30T10:29:53.333Z,39.83
2019-05-30T10:30:57.352Z,37.70
2019-05-30T10:31:53.655Z,38.71
2019-05-30T10:32:53.792Z,38.62
2019-05-30T10:33:52.995Z,39.01
2019-05-30T10:34:53.842Z,38.91
2019-05-30T10:35:53.485Z,38.91
2019-05-30T10:36:53.699Z,38.00
2019-05-30T10:37:52.908Z,38.71
2019-05-30T10:38:53.812Z,39.01
2019-05-30T10:39:57.227Z,38.91
2019-05-30T10:40:54.083Z,38.91
2019-05-30T10:41:53.127Z,37.80
2019-05-30T10:42:53.277Z,37.80
2019-05-30T10:43:53.140Z,38.00
2019-05-30T10:44:52.908Z,38.00
2019-05-30T10:45:53.391Z,36.79
2019-05-30T10:46:52.927Z,36.89
2019-05-30T10:47:53.694Z,37.68
2019-05-30T10:48:52.778Z,37.27
2019-05-30T10:49:53.540Z,37.27
2019-05-30T10:50:52.454Z,37.07
2019-05-30T10:51:57.143Z,37.27
2019-05-30T10:52:53.667Z,36.87
2019-05-30T10:53:53.935Z,37.78
2019-05-30T10:54:53.442Z,38.39
2019-05-30T10:55:53.621Z,38.89
2019-05-30T10:56:53.552Z,37.78
2019-05-30T10:57:55.742Z,38.59
2019-05-30T10:58:53.370Z,38.28
2019-05-30T10:59:52.601Z,38.39
2019-05-30T11:00:53.878Z,37.36
2019-05-30T11:01:53.037Z,37.96
2019-05-30T11:02:52.886Z,38.07
2019-05-30T11:03:52.656Z,38.47
2019-05-30T11:04:53.122Z,37.87
2019-05-30T11:05:52.899Z,37.16
2019-05-30T11:07:09.915Z,36.96
2019-05-30T11:08:02.034Z,36.96
2019-05-30T11:08:53.303Z,37.26
2019-05-30T11:09:52.799Z,37.26
2019-05-30T11:10:52.717Z,36.86
2019-05-30T11:11:52.828Z,37.26
2019-05-30T11:12:57.486Z,36.44
2019-05-30T11:13:53.328Z,36.66
2019-05-30T11:14:53.737Z,36.66
2019-05-30T11:15:53.501Z,37.06
2019-05-30T11:16:53.657Z,37.76
2019-05-30T11:17:53.333Z,38.17
2019-05-30T11:18:53.135Z,37.95
2019-05-30T11:19:52.139Z,36.84
2019-05-30T11:20:52.384Z,36.84
2019-05-30T11:21:52.794Z,36.84
2019-05-30T11:22:53.345Z,36.44
2019-05-30T11:23:52.610Z,36.54
2019-05-30T11:24:52.746Z,36.42
2019-05-30T11:25:52.596Z,36.72
2019-05-30T11:26:52.596Z,36.42
2019-05-30T11:27:52.694Z,36.84
2019-05-30T11:28:52.600Z,37.34
2019-05-30T11:29:52.953Z,37.23
2019-05-30T11:30:52.740Z,36.42
2019-05-30T11:31:52.899Z,36.72
2019-05-30T11:32:53.077Z,36.30
2019-05-30T11:33:52.879Z,36.42
2019-05-30T11:34:53.029Z,36.10
2019-05-30T11:35:52.999Z,36.20
2019-05-30T11:36:53.010Z,36.62
2019-05-30T11:37:52.993Z,35.90
2019-05-30T11:38:52.457Z,36.40
2019-05-30T11:39:53.164Z,36.50
2019-05-30T11:40:51.919Z,36.40
2019-05-30T11:41:51.873Z,36.00
2019-05-30T11:42:51.865Z,36.30
2019-05-30T11:43:51.853Z,36.30
2019-05-30T11:44:51.849Z,35.90
2019-05-30T11:45:51.831Z,35.70
2019-05-30T11:46:51.829Z,36.00
2019-05-30T11:47:51.826Z,35.80
2019-05-30T11:48:51.803Z,35.19
2019-05-30T11:49:51.807Z,35.70
2019-05-30T11:50:52.071Z,35.50
2019-05-30T11:51:51.769Z,35.48
2019-05-30T11:52:51.820Z,35.39
2019-05-30T11:53:51.832Z,35.88
2019-05-30T11:54:52.069Z,35.38
2019-05-30T11:55:52.317Z,35.10
2019-05-30T11:56:52.046Z,36.30
2019-05-30T11:57:52.069Z,36.18
2019-05-30T11:58:52.025Z,36.10
2019-05-30T11:59:52.168Z,36.10
2019-05-30T12:00:53.065Z,36.40
2019-05-30T12:01:52.905Z,36.99
2019-05-30T12:02:52.172Z,37.08
2019-05-30T12:03:52.549Z,36.40
2019-05-30T12:04:52.552Z,35.78
2019-05-30T12:05:52.515Z,36.89
2019-05-30T12:06:53.021Z,36.29
2019-05-30T12:07:52.803Z,36.69
2019-05-30T12:08:52.686Z,36.29
2019-05-30T12:09:52.803Z,35.98
2019-05-30T12:10:52.973Z,36.69
2019-05-30T12:11:51.548Z,36.69
2019-05-30T12:12:51.535Z,36.87
2019-05-30T12:13:51.796Z,37.17
2019-05-30T12:14:51.545Z,35.86
2019-05-30T12:15:51.539Z,36.27
2019-05-30T12:16:51.497Z,35.77
2019-05-30T12:17:51.475Z,35.97
2019-05-30T12:18:51.496Z,36.27
2019-05-30T12:19:51.478Z,36.36
2019-05-30T12:20:52.028Z,36.05
2019-05-30T12:21:51.571Z,35.97
2019-05-30T12:22:51.749Z,35.77
2019-05-30T12:23:51.916Z,35.66
2019-05-30T12:24:51.737Z,36.27
2019-05-30T12:25:51.954Z,36.15
2019-05-30T12:26:51.859Z,36.15
2019-05-30T12:27:52.046Z,36.35
2019-05-30T12:28:52.034Z,36.65
2019-05-30T12:29:52.111Z,35.95
2019-05-30T12:30:56.668Z,35.95
2019-05-30T12:31:55.201Z,35.75
2019-05-30T12:32:52.414Z,35.95
2019-05-30T12:33:52.304Z,36.15
2019-05-30T12:34:52.327Z,35.85
2019-05-30T12:35:52.379Z,35.23
2019-05-30T12:36:52.320Z,35.03
2019-05-30T12:37:56.236Z,35.53
2019-05-30T12:38:52.274Z,35.23
2019-05-30T12:39:52.413Z,34.33
2019-05-30T12:40:52.571Z,34.71
2019-05-30T12:41:51.210Z,34.71
2019-05-30T12:42:54.508Z,34.81
2019-05-30T12:43:53.011Z,34.61
2019-05-30T12:44:51.174Z,35.61
2019-05-30T12:45:51.185Z,34.61
2019-05-30T12:46:51.153Z,34.21
2019-05-30T12:47:51.141Z,34.59
2019-05-30T12:48:51.557Z,35.39
2019-05-30T12:49:51.120Z,35.10
2019-05-30T12:50:51.127Z,35.38
2019-05-30T12:51:51.099Z,35.38